createdAt,value
2018-02-10T00:02:19.006Z,38.90
2018-02-10T00:04:46.636Z,35.03
2018-02-10T00:07:14.277Z,36.07
2018-02-10T00:09:42.710Z,35.37
2018-02-10T00:12:10.348Z,38.57
2018-02-10T00:14:39.017Z,35.73
2018-02-10T00:17:07.429Z,38.90
2018-02-10T00:19:35.114Z,37.83
2018-02-10T00:22:02.766Z,39.70
2018-02-10T00:24:30.412Z,36.33
2018-02-10T00:26:58.089Z,36.53
2018-02-10T00:29:25.759Z,36.33
2018-02-10T00:31:53.400Z,39.30
2018-02-10T00:34:21.032Z,35.00
2018-02-10T00:36:50.460Z,38.93
2018-02-10T00:39:18.116Z,37.77
2018-02-10T00:41:45.757Z,36.47
2018-02-10T00:44:14.194Z,37.70
2018-02-10T00:46:41.872Z,36.07
2018-02-10T00:49:09.525Z,37.50
2018-02-10T00:51:37.167Z,35.40
2018-02-10T00:54:04.850Z,37.77
2018-02-10T00:56:32.486Z,34.20
2018-02-10T00:59:00.122Z,36.40
2018-02-10T01:01:27.788Z,38.83
2018-02-10T01:03:55.437Z,38.53
2018-02-10T01:06:23.085Z,39.00
2018-02-10T01:08:51.524Z,36.30
2018-02-10T01:11:19.165Z,37.37
2018-02-10T01:13:46.805Z,37.60
2018-02-10T01:16:14.475Z,38.70
2018-02-10T01:18:42.129Z,38.27
2018-02-10T01:21:09.808Z,36.87
2018-02-10T01:23:37.457Z,32.17
2018-02-10T01:26:05.135Z,37.10
2018-02-10T01:28:32.776Z,34.40
2018-02-10T01:31:00.458Z,35.83
2018-02-10T01:33:28.117Z,35.83
2018-02-10T01:35:55.759Z,37.23
2018-02-10T01:38:23.421Z,38.20
2018-02-10T01:40:51.073Z,39.60
2018-02-10T01:43:19.520Z,38.90
2018-02-10T01:45:47.184Z,39.80
2018-02-10T01:48:14.832Z,38.77
2018-02-10T01:50:42.497Z,39.93
2018-02-10T01:53:10.130Z,38.27
2018-02-10T01:55:37.826Z,37.20
2018-02-10T01:58:05.474Z,38.10
2018-02-10T02:00:33.124Z,35.73
2018-02-10T02:03:00.800Z,35.40
2018-02-10T02:05:28.453Z,37.60
2018-02-10T02:07:56.111Z,37.50
2018-02-10T02:10:23.787Z,36.70
2018-02-10T02:12:51.428Z,36.40
2018-02-10T02:15:19.100Z,38.60
2018-02-10T02:17:46.760Z,38.77
2018-02-10T02:20:14.425Z,38.00
2018-02-10T02:22:42.063Z,36.90
2018-02-10T02:25:09.743Z,38.00
2018-02-10T02:27:37.393Z,38.70
2018-02-10T02:30:05.043Z,40.20
2018-02-10T02:32:32.709Z,37.67
2018-02-10T02:35:00.355Z,36.27
2018-02-10T02:37:28.784Z,38.30
2018-02-10T02:39:56.430Z,37.97
2018-02-10T02:42:24.078Z,38.30
2018-02-10T02:44:51.754Z,40.97
2018-02-10T02:47:19.410Z,40.80
2018-02-10T02:49:47.056Z,39.67
2018-02-10T02:52:14.748Z,41.17
2018-02-10T02:54:42.407Z,39.10
2018-02-10T02:57:10.052Z,41.43
2018-02-10T02:59:37.728Z,40.87
2018-02-10T03:02:05.426Z,39.87
2018-02-10T03:04:33.077Z,37.47
2018-02-10T03:07:00.718Z,38.63
2018-02-10T03:09:28.389Z,39.00
2018-02-10T03:11:56.029Z,38.20
2018-02-10T03:14:23.704Z,39.17
2018-02-10T03:16:51.351Z,39.90
2018-02-10T03:19:19.024Z,42.60
2018-02-10T03:21:46.675Z,41.07
2018-02-10T03:24:14.302Z,39.70
2018-02-10T03:26:42.758Z,38.77
2018-02-10T03:29:10.392Z,39.67
2018-02-10T03:31:38.074Z,36.10
2018-02-10T03:34:05.755Z,42.83
2018-02-10T03:36:34.159Z,38.87
2018-02-10T03:39:01.807Z,37.87
2018-02-10T03:41:30.246Z,36.90
2018-02-10T03:43:57.922Z,38.23
2018-02-10T03:46:25.565Z,35.47
2018-02-10T03:48:53.259Z,37.07
2018-02-10T03:51:21.679Z,37.57
2018-02-10T03:53:49.352Z,36.40
2018-02-10T03:56:16.989Z,37.17
2018-02-10T03:58:44.729Z,40.33
2018-02-10T04:01:13.179Z,38.30
2018-02-10T04:03:40.828Z,38.00
2018-02-10T04:06:08.490Z,40.90
2018-02-10T04:08:36.147Z,37.87
2018-02-10T04:11:03.780Z,39.90
2018-02-10T04:13:31.458Z,38.67
2018-02-10T04:15:59.117Z,41.47
2018-02-10T04:18:26.866Z,42.30
2018-02-10T04:20:54.557Z,39.00
2018-02-10T04:23:22.199Z,39.47
2018-02-10T04:25:49.851Z,38.23
2018-02-10T04:28:17.513Z,40.17
2018-02-10T04:30:45.152Z,40.90
2018-02-10T04:33:13.601Z,40.40
2018-02-10T04:35:41.227Z,38.63
2018-02-10T04:38:08.967Z,37.87
2018-02-10T04:40:36.666Z,38.10
2018-02-10T04:43:04.332Z,39.90
2018-02-10T04:45:32.021Z,41.00
2018-02-10T04:47:59.769Z,39.53
2018-02-10T04:50:27.442Z,39.20
2018-02-10T04:52:55.096Z,40.30
2018-02-10T04:55:23.495Z,40.17
2018-02-10T04:57:51.162Z,38.30
2018-02-10T05:00:18.792Z,39.00
2018-02-10T05:02:46.462Z,38.83
2018-02-10T05:05:14.115Z,37.90
2018-02-10T05:07:41.772Z,42.40
2018-02-10T05:10:09.433Z,38.73
2018-02-10T05:12:37.091Z,37.87
2018-02-10T05:15:04.740Z,37.70
2018-02-10T05:17:32.425Z,39.77
2018-02-10T05:20:00.103Z,37.97
2018-02-10T05:22:27.736Z,37.87
2018-02-10T05:24:55.410Z,39.93
2018-02-10T05:27:23.147Z,38.00
2018-02-10T05:29:50.835Z,39.30
2018-02-10T05:32:18.493Z,38.80
2018-02-10T05:34:46.166Z,38.03
2018-02-10T05:37:13.834Z,36.70
2018-02-10T05:39:41.476Z,37.57
2018-02-10T05:42:09.152Z,37.50
2018-02-10T05:44:36.792Z,37.60
2018-02-10T05:47:04.470Z,37.80
2018-02-10T05:49:32.122Z,36.80
2018-02-10T05:51:59.770Z,37.27
2018-02-10T05:54:27.446Z,36.17
2018-02-10T05:56:55.098Z,37.37
2018-02-10T05:59:22.765Z,34.67
2018-02-10T06:01:50.400Z,36.77
2018-02-10T06:04:18.042Z,37.03
2018-02-10T06:06:45.754Z,37.37
2018-02-10T06:09:13.529Z,37.67
2018-02-10T06:11:41.187Z,38.67
2018-02-10T06:14:08.825Z,36.80
2018-02-10T06:16:36.489Z,34.80
2018-02-10T06:19:04.151Z,36.33
2018-02-10T06:21:31.804Z,38.57
2018-02-10T06:23:59.480Z,35.30
2018-02-10T06:26:27.120Z,36.73
2018-02-10T06:28:55.521Z,38.60
2018-02-10T06:31:23.194Z,38.77
2018-02-10T06:33:50.846Z,36.53
2018-02-10T06:36:18.520Z,38.03
2018-02-10T06:38:46.198Z,40.43
2018-02-10T06:41:13.831Z,36.00
2018-02-10T06:43:41.482Z,35.77
2018-02-10T06:46:09.207Z,38.50
2018-02-10T06:48:36.900Z,34.40
2018-02-10T06:51:04.586Z,37.77
2018-02-10T06:53:32.220Z,33.97
2018-02-10T06:56:00.648Z,35.23
2018-02-10T06:58:28.341Z,35.97
2018-02-10T07:00:56.750Z,36.20
2018-02-10T07:03:24.417Z,41.93
2018-02-10T07:05:52.048Z,35.80
2018-02-10T07:08:20.495Z,35.83
2018-02-10T07:10:48.132Z,34.53
2018-02-10T07:13:15.797Z,37.30
2018-02-10T07:15:43.446Z,36.07
2018-02-10T07:18:11.148Z,35.40
2018-02-10T07:20:38.797Z,36.03
2018-02-10T07:23:06.440Z,37.50
2018-02-10T07:25:34.114Z,36.03
2018-02-10T07:28:01.756Z,37.57
2018-02-10T07:30:29.431Z,37.70
2018-02-10T07:32:57.082Z,35.80
2018-02-10T07:35:24.722Z,33.73
2018-02-10T07:37:53.146Z,36.00
2018-02-10T07:40:20.805Z,35.73
2018-02-10T07:42:48.489Z,32.07
2018-02-10T07:45:16.161Z,36.10
2018-02-10T07:47:43.790Z,34.33
2018-02-10T07:50:11.439Z,35.40
2018-02-10T07:52:39.087Z,32.53
2018-02-10T07:55:06.764Z,32.70
2018-02-10T07:57:34.417Z,38.60
2018-02-10T08:00:02.100Z,37.90
2018-02-10T08:05:32.771Z,37.77
2018-02-10T08:08:00.439Z,35.17
2018-02-10T08:10:28.113Z,35.47
2018-02-10T08:12:55.758Z,36.20
2018-02-10T08:15:23.395Z,37.20
2018-02-10T08:17:51.837Z,37.67
2018-02-10T08:20:19.496Z,38.07
2018-02-10T08:22:47.173Z,36.70
2018-02-10T08:25:14.811Z,38.93
2018-02-10T08:27:42.453Z,36.67
2018-02-10T08:30:10.117Z,39.73
2018-02-10T08:32:37.774Z,36.53
2018-02-10T08:35:05.446Z,38.50
2018-02-10T08:37:33.107Z,37.00
2018-02-10T08:40:00.785Z,38.97
2018-02-10T08:42:28.441Z,36.43
2018-02-10T08:44:56.068Z,36.83
2018-02-10T08:47:23.728Z,37.80
2018-02-10T08:49:51.393Z,37.53
2018-02-10T08:52:19.066Z,37.90
2018-02-10T08:54:46.733Z,34.67
2018-02-10T08:57:14.370Z,36.50
2018-02-10T08:59:42.801Z,35.50
2018-02-10T09:02:10.457Z,36.10
2018-02-10T09:04:38.134Z,36.50
2018-02-10T09:07:05.794Z,37.60
2018-02-10T09:09:33.469Z,36.77
2018-02-10T09:12:01.117Z,33.57
2018-02-10T09:14:28.762Z,33.17
2018-02-10T09:16:56.432Z,34.23
2018-02-10T09:19:24.075Z,38.37
2018-02-10T09:21:51.741Z,37.00
2018-02-10T09:24:19.378Z,34.70
2018-02-10T09:26:47.051Z,35.93
2018-02-10T09:29:14.693Z,36.60
2018-02-10T09:31:42.324Z,36.20
2018-02-10T09:34:09.971Z,34.80
2018-02-10T09:36:37.601Z,37.40
2018-02-10T09:39:05.278Z,35.97
2018-02-10T09:41:32.941Z,36.30
2018-02-10T09:44:00.611Z,37.23
2018-02-10T09:46:28.297Z,35.43
2018-02-10T09:48:55.987Z,37.50
2018-02-10T09:51:23.645Z,36.63
2018-02-10T09:53:52.070Z,34.90
2018-02-10T09:56:19.770Z,34.60
2018-02-10T09:58:48.177Z,37.50
2018-02-10T10:01:15.817Z,33.67
2018-02-10T10:03:44.262Z,36.53
2018-02-10T10:06:12.702Z,35.07
2018-02-10T10:08:40.400Z,33.63
2018-02-10T10:11:08.036Z,42.03
2018-02-10T10:13:35.687Z,37.60
2018-02-10T10:16:03.414Z,36.77
2018-02-10T10:18:31.092Z,34.97
2018-02-10T10:20:59.489Z,38.60
2018-02-10T10:23:28.113Z,37.90
2018-02-10T10:25:55.756Z,38.00
2018-02-10T10:28:23.413Z,33.77
2018-02-10T10:30:52.111Z,35.07
2018-02-10T10:33:19.736Z,35.70
2018-02-10T10:35:47.450Z,34.60
2018-02-10T10:38:15.107Z,34.93
2018-02-10T10:40:42.739Z,33.60
2018-02-10T10:43:10.413Z,39.73
2018-02-10T10:45:38.039Z,37.43
2018-02-10T10:48:06.532Z,34.70
2018-02-10T10:50:34.177Z,35.93
2018-02-10T10:53:02.580Z,36.67
2018-02-10T10:55:31.212Z,33.90
2018-02-10T10:57:58.847Z,34.80
2018-02-10T11:00:26.478Z,33.97
2018-02-10T11:02:54.164Z,33.00
2018-02-10T11:05:21.788Z,33.63
2018-02-10T11:07:50.198Z,34.00
2018-02-10T11:10:17.861Z,32.73
2018-02-10T11:12:45.575Z,33.47
2018-02-10T11:15:13.225Z,36.13
2018-02-10T11:17:40.866Z,33.50
2018-02-10T11:20:08.607Z,33.63
2018-02-10T11:22:36.250Z,32.80
2018-02-10T11:25:03.945Z,32.07
2018-02-10T11:27:31.594Z,34.47
2018-02-10T11:29:59.241Z,33.23
2018-02-10T11:32:26.925Z,35.60
2018-02-10T11:34:54.572Z,31.80
2018-02-10T11:37:22.263Z,33.57
2018-02-10T11:39:49.902Z,32.17
2018-02-10T11:42:18.296Z,31.43
2018-02-10T11:44:45.984Z,34.23
2018-02-10T11:47:13.615Z,33.53
2018-02-10T11:49:41.239Z,33.77
2018-02-10T11:52:08.944Z,46.87
2018-02-10T11:54:36.594Z,33.00
2018-02-10T11:57:04.234Z,30.70
2018-02-10T11:59:32.703Z,36.83
2018-02-10T12:02:01.204Z,33.53
2018-02-10T12:04:28.898Z,31.17
2018-02-10T12:06:56.578Z,30.10
2018-02-10T12:09:24.234Z,28.37
2018-02-10T12:11:51.872Z,29.53
2018-02-10T12:14:19.576Z,29.23
2018-02-10T12:16:47.215Z,31.27
2018-02-10T12:19:14.865Z,23.80
2018-02-10T12:21:42.570Z,26.73
2018-02-10T12:24:10.218Z,26.20
2018-02-10T12:26:37.857Z,25.20
2018-02-10T12:29:05.534Z,23.70
2018-02-10T12:31:33.174Z,24.90
2018-02-10T12:34:00.825Z,23.10
2018-02-10T12:36:28.527Z,22.77
2018-02-10T12:38:56.186Z,29.53
2018-02-10T12:41:23.825Z,27.17
2018-02-10T12:43:51.517Z,21.70
2018-02-10T12:46:19.173Z,25.13
2018-02-10T12:48:54.966Z,30.03
2018-02-10T12:51:22.640Z,29.97
2018-02-10T12:53:51.101Z,29.23
2018-02-10T12:56:19.550Z,28.77
2018-02-10T12:58:47.193Z,29.87
2018-02-10T13:01:14.827Z,29.60
2018-02-10T13:03:42.509Z,29.80
2018-02-10T13:06:10.185Z,28.87
2018-02-10T13:08:38.585Z,28.20
2018-02-10T13:11:06.247Z,28.37
2018-02-10T13:13:33.911Z,28.43
2018-02-10T13:16:01.561Z,31.37
2018-02-10T13:18:29.241Z,30.10
2018-02-10T13:20:57.656Z,30.73
2018-02-10T13:23:25.297Z,29.03
2018-02-10T13:25:53.734Z,26.80
2018-02-10T13:28:22.142Z,28.73
2018-02-10T13:30:50.560Z,29.57
2018-02-10T13:33:18.204Z,29.27
2018-02-10T13:35:45.867Z,30.63
2018-02-10T13:38:13.540Z,26.27
2018-02-10T13:40:41.176Z,27.97
2018-02-10T13:43:09.564Z,25.30
2018-02-10T13:45:39.009Z,26.63
2018-02-10T13:48:06.657Z,26.20
2018-02-10T13:50:34.327Z,24.70
2018-02-10T13:53:02.005Z,22.60
2018-02-10T13:55:29.674Z,22.40
2018-02-10T13:57:57.331Z,22.97
2018-02-10T14:00:25.023Z,21.20
2018-02-10T14:02:53.495Z,21.27
2018-02-10T14:05:21.150Z,20.17
2018-02-10T14:07:48.806Z,20.40
2018-02-10T14:10:16.549Z,20.60
2018-02-10T14:12:44.225Z,23.90
2018-02-10T14:15:12.864Z,22.37
2018-02-10T14:17:40.547Z,22.13
2018-02-10T14:20:08.172Z,20.53
2018-02-10T14:22:36.568Z,19.07
2018-02-10T14:25:04.247Z,21.07
2018-02-10T14:27:31.881Z,25.57
2018-02-10T14:30:00.314Z,21.87
2018-02-10T14:32:27.945Z,19.70
2018-02-10T14:34:55.605Z,20.17
2018-02-10T14:37:23.269Z,26.07
2018-02-10T14:39:50.924Z,19.10
2018-02-10T14:42:18.618Z,29.93
2018-02-10T14:44:46.280Z,23.03
2018-02-10T14:47:13.947Z,26.43
2018-02-10T14:49:42.802Z,34.23
2018-02-10T14:52:10.463Z,23.00
2018-02-10T14:54:38.117Z,27.50
2018-02-10T14:57:05.812Z,20.00
2018-02-10T14:59:33.463Z,18.00
2018-02-10T15:02:01.141Z,18.83
2018-02-10T15:04:28.836Z,18.77
2018-02-10T15:06:57.282Z,18.80
2018-02-10T15:09:25.133Z,19.00
2018-02-10T15:11:52.757Z,17.80
2018-02-10T15:14:21.182Z,20.50
2018-02-10T15:16:48.831Z,19.90
2018-02-10T15:19:16.478Z,23.50
2018-02-10T15:21:44.171Z,29.47
2018-02-10T15:24:11.814Z,19.20
2018-02-10T15:26:39.465Z,28.53
2018-02-10T15:29:07.133Z,51.87
2018-02-10T15:31:46.730Z,36.20
2018-02-10T15:34:26.274Z,25.77
2018-02-10T15:36:53.917Z,36.30
2018-02-10T15:39:21.555Z,24.00
2018-02-10T15:41:49.239Z,36.07
2018-02-10T15:44:16.884Z,37.53
2018-02-10T15:46:44.559Z,42.27
2018-02-10T15:49:12.202Z,40.50
2018-02-10T15:51:39.875Z,43.63
2018-02-10T15:54:07.557Z,26.33
2018-02-10T15:56:37.206Z,30.50
2018-02-10T15:59:04.870Z,54.33
2018-02-10T16:01:32.559Z,29.90
2018-02-10T16:04:00.227Z,73.93
2018-02-10T16:06:27.874Z,36.83
2018-02-10T16:08:55.548Z,32.63
2018-02-10T16:11:23.180Z,30.60
2018-02-10T16:13:50.817Z,35.57
2018-02-10T16:16:19.247Z,28.23
2018-02-10T16:18:46.901Z,25.50
2018-02-10T16:21:14.561Z,31.77
2018-02-10T16:23:42.237Z,31.00
2018-02-10T16:26:09.897Z,33.43
2018-02-10T16:28:37.539Z,27.40
2018-02-10T16:31:05.184Z,26.23
2018-02-10T16:33:32.852Z,23.13
2018-02-10T16:36:00.483Z,23.57
2018-02-10T16:38:28.913Z,24.10
2018-02-10T16:40:56.566Z,24.33
2018-02-10T16:43:24.315Z,21.70
2018-02-10T16:45:51.999Z,21.50
2018-02-10T16:48:19.638Z,20.13
2018-02-10T16:50:47.327Z,21.50
2018-02-10T16:53:14.955Z,21.97
2018-02-10T16:55:42.604Z,21.77
2018-02-10T16:58:11.038Z,22.17
2018-02-10T17:00:38.701Z,21.93
2018-02-10T17:03:06.374Z,27.83
2018-02-10T17:05:34.022Z,26.87
2018-02-10T17:08:01.673Z,22.87
2018-02-10T17:10:29.344Z,23.20
2018-02-10T17:12:57.004Z,22.83
2018-02-10T17:15:24.713Z,22.20
2018-02-10T17:17:52.354Z,24.43
2018-02-10T17:20:20.024Z,23.30
2018-02-10T17:22:47.668Z,21.73
2018-02-10T17:25:15.301Z,22.77
2018-02-10T17:27:42.967Z,20.83
2018-02-10T17:30:10.640Z,21.03
2018-02-10T17:32:38.354Z,20.30
2018-02-10T17:35:06.781Z,21.07
2018-02-10T17:37:34.413Z,21.87
2018-02-10T17:40:02.092Z,21.77
2018-02-10T17:42:29.723Z,20.67
2018-02-10T17:44:58.156Z,21.13
2018-02-10T17:47:26.563Z,20.83
2018-02-10T17:49:54.230Z,21.13
2018-02-10T17:52:21.869Z,21.90
2018-02-10T17:54:49.545Z,22.00
2018-02-10T17:57:17.210Z,22.70
2018-02-10T17:59:44.859Z,22.20
2018-02-10T18:02:12.550Z,20.90
2018-02-10T18:04:40.948Z,20.63
2018-02-10T18:07:08.619Z,22.20
2018-02-10T18:09:36.271Z,21.07
2018-02-10T18:12:03.897Z,21.47
2018-02-10T18:14:31.581Z,21.50
2018-02-10T18:16:59.226Z,24.30
2018-02-10T18:19:26.873Z,24.70
2018-02-10T18:21:54.548Z,25.20
2018-02-10T18:24:22.230Z,24.40
2018-02-10T18:26:49.875Z,25.13
2018-02-10T18:29:17.549Z,23.77
2018-02-10T18:31:45.994Z,22.33
2018-02-10T18:34:13.641Z,21.40
2018-02-10T18:36:41.281Z,24.20
2018-02-10T18:39:08.953Z,23.40
2018-02-10T18:41:36.601Z,19.17
2018-02-10T18:44:04.236Z,21.90
2018-02-10T18:46:32.657Z,21.40
2018-02-10T18:49:00.334Z,21.40
2018-02-10T18:51:27.970Z,21.57
2018-02-10T18:53:55.613Z,20.30
2018-02-10T18:56:23.333Z,22.93
2018-02-10T18:58:50.960Z,23.50
2018-02-10T19:01:18.613Z,22.70
2018-02-10T19:03:46.277Z,22.77
2018-02-10T19:06:13.943Z,24.10
2018-02-10T19:08:41.585Z,23.60
2018-02-10T19:11:09.230Z,21.77
2018-02-10T19:13:37.671Z,22.40
2018-02-10T19:16:05.308Z,22.80
2018-02-10T19:18:32.974Z,23.23
2018-02-10T19:21:00.622Z,23.90
2018-02-10T19:23:28.331Z,24.00
2018-02-10T19:25:55.955Z,23.40
2018-02-10T19:28:23.618Z,25.47
2018-02-10T19:30:51.299Z,24.57
2018-02-10T19:33:18.941Z,23.80
2018-02-10T19:35:46.638Z,24.27
2018-02-10T19:38:14.302Z,23.67
2018-02-10T19:40:41.946Z,25.63
2018-02-10T19:43:09.621Z,23.47
2018-02-10T19:45:37.254Z,27.20
2018-02-10T19:48:04.913Z,23.90
2018-02-10T19:50:32.548Z,30.10
2018-02-10T19:53:00.966Z,26.47
2018-02-10T19:55:28.679Z,24.87
2018-02-10T19:57:56.351Z,25.07
2018-02-10T20:00:24.753Z,25.90
2018-02-10T20:02:52.425Z,26.10
2018-02-10T20:05:20.082Z,25.30
2018-02-10T20:07:47.721Z,23.90
2018-02-10T20:10:16.164Z,23.80
2018-02-10T20:12:43.800Z,23.17
2018-02-10T20:15:11.480Z,22.73
2018-02-10T20:17:39.145Z,23.33
2018-02-10T20:20:06.818Z,25.70
2018-02-10T20:22:34.472Z,26.80
2018-02-10T20:25:02.158Z,24.10
2018-02-10T20:27:30.587Z,25.70
2018-02-10T20:29:58.215Z,24.53
2018-02-10T20:32:25.878Z,26.00
2018-02-10T20:34:53.525Z,25.83
2018-02-10T20:37:22.809Z,22.47
2018-02-10T20:39:50.448Z,25.13
2018-02-10T20:42:18.147Z,24.87
2018-02-10T20:44:46.552Z,25.97
2018-02-10T20:47:14.223Z,24.20
2018-02-10T20:49:41.883Z,25.70
2018-02-10T20:52:09.556Z,25.73
2018-02-10T20:54:37.221Z,25.70
2018-02-10T20:57:04.890Z,25.53
2018-02-10T22:21:29.740Z,17.50
2018-02-10T22:23:57.403Z,17.97
2018-02-10T22:28:59.860Z,21.07
2018-02-10T22:31:27.543Z,21.77
2018-02-10T22:33:55.223Z,21.50
2018-02-10T22:36:22.874Z,23.50
2018-02-10T22:38:50.570Z,19.53
2018-02-10T22:41:18.225Z,20.20
2018-02-10T22:43:45.909Z,20.23
2018-02-10T22:46:13.621Z,18.90
2018-02-10T22:48:41.253Z,17.77
2018-02-10T22:51:08.946Z,20.23
2018-02-10T22:53:36.607Z,18.20
2018-02-10T22:56:04.267Z,16.90
2018-02-10T22:58:31.929Z,17.03
2018-02-10T23:01:05.353Z,15.57
2018-02-10T23:03:33.002Z,17.20
2018-02-10T23:06:00.644Z,17.93
2018-02-10T23:08:28.321Z,16.87
2018-02-10T23:10:55.958Z,16.10
2018-02-10T23:13:23.580Z,15.20
2018-02-10T23:15:52.037Z,15.77
2018-02-10T23:18:19.678Z,13.60
2018-02-10T23:20:47.333Z,14.80
2018-02-10T23:23:15.007Z,15.93
2018-02-10T23:25:42.640Z,14.13
2018-02-10T23:28:10.275Z,16.70
2018-02-10T23:30:38.720Z,16.60
2018-02-10T23:33:06.360Z,15.23
2018-02-10T23:35:34.821Z,14.50
2018-02-10T23:38:02.504Z,14.67
2018-02-10T23:40:30.136Z,12.63
2018-02-10T23:42:57.775Z,12.63
2018-02-10T23:45:26.236Z,13.60
2018-02-10T23:47:53.881Z,15.07
2018-02-10T23:50:21.561Z,18.23
2018-02-10T23:52:49.214Z,15.57
2018-02-10T23:55:16.840Z,15.13
2018-02-10T23:57:44.517Z,18.57
